createdAt,value
2022-10-31T00:00:00.242Z,2.35
2022-10-31T00:03:03.729Z,2.25
2022-10-31T00:06:08.769Z,1.13
2022-10-31T00:09:12.167Z,3.60
2022-10-31T00:12:15.275Z,2.85
2022-10-31T00:15:18.395Z,1.30
2022-10-31T00:18:21.684Z,1.60
2022-10-31T00:21:26.993Z,1.83
2022-10-31T00:24:30.077Z,1.38
2022-10-31T00:27:33.328Z,0.98
2022-10-31T00:30:36.596Z,1.88
2022-10-31T00:33:41.236Z,1.02
2022-10-31T00:36:45.852Z,2.00
2022-10-31T00:39:50.554Z,1.90
2022-10-31T00:42:53.940Z,2.95
2022-10-31T00:45:57.169Z,2.55
2022-10-31T00:49:01.582Z,2.90
2022-10-31T00:52:06.340Z,2.30
2022-10-31T00:55:10.097Z,1.33
2022-10-31T01:01:22.491Z,1.00
2022-10-31T01:04:26.224Z,1.67
2022-10-31T01:07:30.690Z,1.70
2022-10-31T01:10:34.117Z,1.45
2022-10-31T01:13:37.486Z,1.20
2022-10-31T01:16:40.556Z,1.17
2022-10-31T01:19:43.577Z,1.80
2022-10-31T01:22:47.961Z,1.67
2022-10-31T01:25:51.059Z,1.00
2022-10-31T01:28:56.880Z,2.20
2022-10-31T01:32:00.000Z,1.88
2022-10-31T01:35:03.087Z,1.85
2022-10-31T01:38:07.753Z,0.82
2022-10-31T01:41:14.016Z,2.08
2022-10-31T01:45:00.045Z,1.40
2022-10-31T01:48:04.082Z,2.15
2022-10-31T01:51:07.684Z,1.95
2022-10-31T01:54:17.236Z,1.02
2022-10-31T01:57:22.457Z,2.28
2022-10-31T02:00:27.858Z,1.52
2022-10-31T02:03:31.987Z,1.38
2022-10-31T02:06:39.715Z,3.03
2022-10-31T02:09:46.993Z,3.28
2022-10-31T02:12:52.302Z,2.95
2022-10-31T02:15:59.404Z,1.20
2022-10-31T02:19:02.667Z,1.50
2022-10-31T02:22:14.784Z,3.67
2022-10-31T02:25:42.336Z,1.85
2022-10-31T02:29:07.031Z,2.55
2022-10-31T02:32:17.951Z,1.05
2022-10-31T02:35:31.347Z,1.65
2022-10-31T02:38:52.137Z,1.52
2022-10-31T02:42:11.454Z,1.92
2022-10-31T02:45:20.219Z,1.70
2022-10-31T02:48:29.768Z,1.58
2022-10-31T02:51:33.076Z,1.25
2022-10-31T02:54:36.239Z,2.25
2022-10-31T02:57:41.764Z,2.70
2022-10-31T03:00:58.376Z,2.17
2022-10-31T03:04:25.217Z,2.17
2022-10-31T03:07:41.757Z,0.80
2022-10-31T03:10:49.312Z,1.08
2022-10-31T03:13:59.625Z,1.48
2022-10-31T03:17:08.004Z,1.98
2022-10-31T03:20:13.084Z,1.42
2022-10-31T03:23:20.391Z,1.40
2022-10-31T03:26:27.662Z,2.08
2022-10-31T03:29:35.447Z,2.03
2022-10-31T03:32:43.141Z,1.48
2022-10-31T03:35:50.328Z,1.90
2022-10-31T03:42:00.739Z,1.98
2022-10-31T03:45:10.054Z,1.55
2022-10-31T03:48:14.973Z,1.25
2022-10-31T03:51:25.397Z,0.60
2022-10-31T03:54:38.553Z,1.25
2022-10-31T03:57:45.097Z,1.95
2022-10-31T04:00:53.457Z,1.15
2022-10-31T04:03:58.335Z,1.77
2022-10-31T04:07:05.281Z,2.08
2022-10-31T04:10:12.989Z,0.90
2022-10-31T04:13:24.966Z,2.92
2022-10-31T04:16:37.515Z,0.93
2022-10-31T04:19:40.676Z,2.30
2022-10-31T04:22:45.693Z,1.42
2022-10-31T04:25:48.802Z,1.60
2022-10-31T04:28:53.578Z,1.98
2022-10-31T04:34:19.444Z,1.33
2022-10-31T04:37:22.605Z,1.35
2022-10-31T04:40:26.318Z,2.30
2022-10-31T04:43:47.911Z,1.58
2022-10-31T04:46:51.049Z,2.05
2022-10-31T04:49:55.521Z,1.42
2022-10-31T04:52:58.717Z,1.30
2022-10-31T04:56:06.501Z,0.85
2022-10-31T04:59:17.579Z,1.58
2022-10-31T05:02:30.746Z,0.75
2022-10-31T05:05:37.064Z,0.75
2022-10-31T05:08:40.668Z,1.20
2022-10-31T05:11:45.099Z,2.47
2022-10-31T05:15:03.637Z,1.95
2022-10-31T05:18:25.218Z,1.00
2022-10-31T05:21:48.281Z,1.52
2022-10-31T05:24:51.434Z,1.75
2022-10-31T05:27:56.646Z,1.10
2022-10-31T05:30:59.868Z,1.15
2022-10-31T05:34:02.990Z,1.30
2022-10-31T05:37:30.295Z,1.25
2022-10-31T05:40:33.595Z,0.85
2022-10-31T05:43:36.760Z,1.30
2022-10-31T05:46:43.491Z,1.33
2022-10-31T05:50:12.827Z,1.23
2022-10-31T05:53:25.518Z,1.50
2022-10-31T05:56:28.620Z,1.90
2022-10-31T05:59:31.942Z,2.97
2022-10-31T06:02:35.533Z,1.70
2022-10-31T06:05:58.988Z,1.35
2022-10-31T06:09:08.970Z,1.08
2022-10-31T06:12:13.231Z,2.05
2022-10-31T06:15:34.670Z,1.10
2022-10-31T06:18:37.912Z,1.55
2022-10-31T06:21:41.090Z,1.25
2022-10-31T06:24:45.772Z,3.53
2022-10-31T06:28:11.121Z,1.42
2022-10-31T06:31:33.293Z,1.02
2022-10-31T06:34:37.008Z,2.10
2022-10-31T06:37:41.883Z,2.30
2022-10-31T06:41:06.357Z,1.95
2022-10-31T06:44:19.333Z,1.02
2022-10-31T06:47:31.278Z,1.33
2022-10-31T06:50:43.906Z,2.53
2022-10-31T06:53:47.172Z,1.65
2022-10-31T06:56:54.558Z,0.68
2022-10-31T06:59:58.726Z,0.98
2022-10-31T07:03:13.669Z,1.10
2022-10-31T07:06:17.011Z,2.08
2022-10-31T07:09:20.203Z,3.45
2022-10-31T07:12:25.291Z,2.83
2022-10-31T07:15:36.687Z,5.32
2022-10-31T07:18:39.926Z,3.75
2022-10-31T07:21:43.318Z,1.95
2022-10-31T07:24:50.347Z,1.13
2022-10-31T07:28:13.402Z,2.97
2022-10-31T07:31:16.646Z,2.50
2022-10-31T07:34:19.907Z,2.03
2022-10-31T07:37:52.344Z,1.17
2022-10-31T07:40:56.082Z,2.30
2022-10-31T07:44:01.786Z,2.25
2022-10-31T07:47:23.425Z,2.83
2022-10-31T07:51:04.902Z,3.13
2022-10-31T07:54:28.536Z,1.67
2022-10-31T07:57:34.494Z,3.00
2022-10-31T08:00:40.883Z,1.60
2022-10-31T08:03:44.897Z,1.65
2022-10-31T08:07:26.446Z,2.25
2022-10-31T08:10:38.503Z,1.38
2022-10-31T08:13:43.683Z,2.28
2022-10-31T08:19:54.128Z,1.50
2022-10-31T08:23:03.661Z,2.15
2022-10-31T08:26:08.979Z,3.20
2022-10-31T08:29:13.704Z,1.52
2022-10-31T08:32:19.321Z,2.17
2022-10-31T08:35:34.492Z,2.30
2022-10-31T08:39:01.578Z,2.10
2022-10-31T08:42:05.802Z,1.95
2022-10-31T08:45:09.551Z,1.52
2022-10-31T08:48:15.955Z,1.77
2022-10-31T08:51:19.383Z,2.00
2022-10-31T08:54:24.729Z,2.72
2022-10-31T08:57:27.814Z,3.00
2022-10-31T09:00:31.242Z,2.15
2022-10-31T09:03:44.329Z,2.15
2022-10-31T09:07:19.775Z,1.70
2022-10-31T09:10:11.006Z,1.08
2022-10-31T09:13:16.882Z,1.58
2022-10-31T09:16:55.141Z,2.83
2022-10-31T09:20:04.975Z,3.45
2022-10-31T09:23:12.996Z,2.45
2022-10-31T09:26:16.130Z,2.42
2022-10-31T09:29:51.299Z,1.75
2022-10-31T09:32:59.249Z,2.28
2022-10-31T09:36:03.995Z,1.95
2022-10-31T09:39:08.319Z,1.05
2022-10-31T09:42:39.798Z,2.25
2022-10-31T09:46:00.624Z,1.90
2022-10-31T09:49:35.071Z,3.15
2022-10-31T09:52:45.624Z,2.17
2022-10-31T09:55:51.601Z,2.75
2022-10-31T09:58:59.075Z,1.35
2022-10-31T10:02:05.234Z,2.75
2022-10-31T10:05:13.944Z,3.42
2022-10-31T10:08:24.669Z,1.67
2022-10-31T10:12:05.220Z,1.58
2022-10-31T10:15:27.225Z,2.90
2022-10-31T10:18:42.337Z,2.28
2022-10-31T10:21:53.035Z,1.80
2022-10-31T10:25:12.529Z,2.72
2022-10-31T10:28:23.319Z,1.63
2022-10-31T10:34:24.967Z,2.35
2022-10-31T10:37:32.851Z,0.65
2022-10-31T10:43:39.796Z,2.80
2022-10-31T10:47:02.465Z,1.65
2022-10-31T10:50:12.246Z,1.88
2022-10-31T10:53:36.172Z,2.50
2022-10-31T10:56:47.968Z,2.65
2022-10-31T10:59:51.317Z,4.45
2022-10-31T11:02:54.914Z,2.53
2022-10-31T11:06:02.108Z,1.35
2022-10-31T11:09:11.862Z,2.22
2022-10-31T11:12:23.006Z,1.58
2022-10-31T11:15:28.341Z,3.08
2022-10-31T11:18:33.753Z,3.22
2022-10-31T11:21:38.229Z,1.38
2022-10-31T11:24:42.951Z,2.05
2022-10-31T11:27:46.528Z,1.65
2022-10-31T11:30:52.220Z,2.83
2022-10-31T11:34:00.951Z,2.15
2022-10-31T11:37:14.818Z,2.67
2022-10-31T11:40:21.332Z,3.45
2022-10-31T11:43:25.375Z,2.22
2022-10-31T11:46:35.358Z,1.98
2022-10-31T11:49:41.874Z,1.48
2022-10-31T11:52:46.665Z,2.28
2022-10-31T11:56:01.957Z,2.63
2022-10-31T11:59:07.528Z,2.60
2022-10-31T12:02:21.011Z,2.75
2022-10-31T12:05:32.052Z,2.75
2022-10-31T12:08:38.537Z,5.68
2022-10-31T12:11:51.651Z,3.40
2022-10-31T12:15:05.291Z,3.28
2022-10-31T12:18:38.971Z,1.58
2022-10-31T12:21:59.818Z,2.13
2022-10-31T12:25:19.791Z,1.80
2022-10-31T12:28:55.498Z,2.80
2022-10-31T12:32:15.918Z,4.30
2022-10-31T12:35:32.173Z,3.00
2022-10-31T12:38:59.634Z,2.75
2022-10-31T12:42:15.283Z,1.65
2022-10-31T12:45:36.050Z,3.03
2022-10-31T12:49:00.164Z,1.95
2022-10-31T12:52:15.829Z,2.00
2022-10-31T12:55:35.089Z,3.42
2022-10-31T12:58:45.553Z,2.15
2022-10-31T13:01:53.628Z,2.47
2022-10-31T13:04:59.737Z,3.47
2022-10-31T13:08:08.526Z,1.85
2022-10-31T13:11:15.745Z,2.85
2022-10-31T13:14:27.668Z,2.53
2022-10-31T13:17:36.782Z,2.33
2022-10-31T13:20:44.151Z,1.80
2022-10-31T13:23:51.761Z,2.15
2022-10-31T13:26:58.457Z,2.25
2022-10-31T13:30:06.664Z,1.75
2022-10-31T13:33:16.023Z,2.38
2022-10-31T13:36:28.234Z,1.50
2022-10-31T13:39:41.901Z,2.13
2022-10-31T13:42:55.970Z,2.70
2022-10-31T13:46:00.485Z,2.88
2022-10-31T13:49:03.858Z,1.50
2022-10-31T13:52:14.819Z,2.65
2022-10-31T13:55:52.389Z,1.80
2022-10-31T13:59:21.682Z,1.83
2022-10-31T14:02:29.652Z,1.90
2022-10-31T14:05:35.235Z,2.35
2022-10-31T14:08:42.689Z,1.65
2022-10-31T14:11:48.458Z,1.17
2022-10-31T14:14:54.934Z,2.88
2022-10-31T14:18:01.601Z,2.03
2022-10-31T14:21:16.405Z,2.13
2022-10-31T14:24:37.942Z,1.23
2022-10-31T14:27:48.726Z,2.17
2022-10-31T14:30:57.076Z,1.90
2022-10-31T14:34:02.709Z,1.63
2022-10-31T14:37:34.881Z,1.45
2022-10-31T14:44:30.997Z,2.38
2022-10-31T14:47:45.054Z,2.53
2022-10-31T14:50:52.521Z,2.55
2022-10-31T14:53:58.286Z,1.48
2022-10-31T14:57:08.875Z,1.98
2022-10-31T15:00:19.421Z,2.25
2022-10-31T15:03:30.620Z,1.90
2022-10-31T15:06:42.535Z,2.15
2022-10-31T15:09:46.467Z,2.05
2022-10-31T15:12:49.599Z,3.08
2022-10-31T15:15:56.290Z,1.85
2022-10-31T15:19:01.711Z,1.83
2022-10-31T15:22:06.276Z,1.02
2022-10-31T15:25:19.518Z,2.97
2022-10-31T15:28:25.763Z,2.33
2022-10-31T15:31:29.238Z,2.72
2022-10-31T15:34:40.521Z,1.95
2022-10-31T15:37:45.260Z,1.75
2022-10-31T15:40:55.254Z,1.58
2022-10-31T15:44:05.420Z,1.55
2022-10-31T15:47:18.791Z,2.17
2022-10-31T15:50:25.727Z,2.05
2022-10-31T15:53:38.335Z,0.97
2022-10-31T15:56:44.995Z,1.77
2022-10-31T15:59:49.991Z,1.60
2022-10-31T16:03:05.040Z,1.27
2022-10-31T16:06:09.002Z,1.70
2022-10-31T16:09:23.907Z,1.33
2022-10-31T16:12:36.875Z,1.25
2022-10-31T16:15:40.141Z,1.98
2022-10-31T16:18:44.253Z,1.20
2022-10-31T16:21:49.726Z,1.58
2022-10-31T16:24:59.399Z,1.27
2022-10-31T16:28:06.507Z,0.88
2022-10-31T16:34:26.536Z,1.88
2022-10-31T16:37:30.327Z,1.38
2022-10-31T16:40:34.530Z,1.95
2022-10-31T16:43:37.729Z,3.13
2022-10-31T16:46:41.005Z,3.28
2022-10-31T16:49:48.296Z,1.33
2022-10-31T16:56:19.082Z,1.67
2022-10-31T16:59:22.279Z,1.50
2022-10-31T17:02:25.856Z,2.13
2022-10-31T17:05:32.852Z,2.53
2022-10-31T17:08:36.375Z,1.85
2022-10-31T17:11:49.323Z,2.53
2022-10-31T17:14:53.981Z,3.50
2022-10-31T17:17:57.473Z,2.95
2022-10-31T17:21:06.031Z,1.42
2022-10-31T17:24:13.306Z,2.72
2022-10-31T17:27:16.408Z,2.13
2022-10-31T17:30:21.942Z,2.45
2022-10-31T17:33:25.027Z,1.13
2022-10-31T17:36:29.514Z,2.25
2022-10-31T17:39:32.702Z,3.10
2022-10-31T17:42:35.878Z,2.35
2022-10-31T17:45:40.787Z,3.72
2022-10-31T17:48:43.908Z,3.03
2022-10-31T17:51:48.427Z,2.22
2022-10-31T17:54:51.517Z,2.75
2022-10-31T17:57:54.638Z,2.67
2022-10-31T18:00:58.161Z,2.13
2022-10-31T18:04:01.245Z,2.53
2022-10-31T18:07:05.945Z,4.18
2022-10-31T18:10:10.240Z,3.08
2022-10-31T18:13:13.419Z,5.25
2022-10-31T18:16:19.092Z,5.78
2022-10-31T18:19:22.174Z,4.88
2022-10-31T18:22:26.731Z,3.20
2022-10-31T18:25:29.908Z,4.38
2022-10-31T18:28:33.431Z,4.03
2022-10-31T18:31:37.088Z,4.43
2022-10-31T18:34:40.179Z,4.47
2022-10-31T18:37:44.970Z,5.15
2022-10-31T18:40:48.224Z,4.35
2022-10-31T18:43:52.094Z,5.47
2022-10-31T18:46:55.206Z,3.13
2022-10-31T18:49:58.333Z,4.50
2022-10-31T18:53:03.115Z,3.85
2022-10-31T18:56:09.092Z,4.20
2022-10-31T18:59:12.574Z,4.55
2022-10-31T19:02:17.343Z,3.42
2022-10-31T19:05:22.125Z,3.40
2022-10-31T19:11:35.807Z,4.00
2022-10-31T19:14:39.057Z,4.57
2022-10-31T19:17:42.134Z,5.90
2022-10-31T19:20:45.258Z,6.32
2022-10-31T19:23:49.859Z,6.22
2022-10-31T19:26:52.949Z,4.80
2022-10-31T19:29:56.318Z,3.58
2022-10-31T19:32:59.579Z,3.95
2022-10-31T19:36:03.952Z,2.95
2022-10-31T19:39:08.525Z,4.82
2022-10-31T19:42:11.665Z,5.47
2022-10-31T19:45:15.394Z,3.95
2022-10-31T19:48:18.510Z,5.35
2022-10-31T19:51:22.548Z,2.90
2022-10-31T19:54:27.021Z,4.25
2022-10-31T19:57:56.313Z,5.15
2022-10-31T20:00:54.177Z,3.88
2022-10-31T20:03:57.414Z,4.45
2022-10-31T20:07:00.501Z,3.28
2022-10-31T20:10:05.300Z,4.10
2022-10-31T20:13:08.439Z,4.53
2022-10-31T20:16:13.867Z,2.88
2022-10-31T20:19:16.996Z,3.45
2022-10-31T20:22:20.477Z,2.75
2022-10-31T20:25:24.942Z,4.60
2022-10-31T20:28:28.571Z,4.95
2022-10-31T20:31:33.121Z,3.92
2022-10-31T20:34:36.731Z,5.00
2022-10-31T20:37:39.893Z,5.35
2022-10-31T20:40:44.499Z,4.13
2022-10-31T20:43:48.064Z,5.10
2022-10-31T20:46:51.369Z,4.70
2022-10-31T20:49:54.591Z,4.53
2022-10-31T20:52:57.671Z,3.38
2022-10-31T20:56:06.957Z,4.18
2022-10-31T20:59:12.322Z,2.95
2022-10-31T21:02:15.733Z,5.30
2022-10-31T21:05:21.006Z,9.38
2022-10-31T21:08:24.862Z,22.33
2022-10-31T21:11:29.868Z,21.80
2022-10-31T21:14:33.068Z,10.00
2022-10-31T21:17:36.549Z,8.98
2022-10-31T21:20:41.648Z,16.55
2022-10-31T21:23:45.084Z,16.90
2022-10-31T21:26:52.205Z,14.10
2022-10-31T21:29:55.347Z,10.93
2022-10-31T21:32:58.371Z,6.03
2022-10-31T21:36:01.551Z,6.32
2022-10-31T21:39:06.662Z,2.33
2022-10-31T21:42:11.316Z,4.38
2022-10-31T21:45:14.626Z,5.22
2022-10-31T21:48:17.717Z,3.90
2022-10-31T21:51:23.346Z,6.25
2022-10-31T21:54:30.239Z,3.83
2022-10-31T21:57:34.928Z,2.53
2022-10-31T22:00:38.028Z,4.70
2022-10-31T22:03:42.635Z,2.53
2022-10-31T22:06:45.857Z,8.65
2022-10-31T22:09:49.092Z,2.90
2022-10-31T22:12:53.519Z,4.82
2022-10-31T22:16:00.529Z,3.42
2022-10-31T22:19:05.626Z,4.72
2022-10-31T22:22:08.919Z,2.67
2022-10-31T22:25:12.098Z,6.03
2022-10-31T22:28:16.551Z,2.65
2022-10-31T22:34:19.954Z,8.88
2022-10-31T22:37:23.104Z,6.00
2022-10-31T22:40:26.211Z,3.08
2022-10-31T22:43:29.276Z,2.60
2022-10-31T22:46:34.327Z,2.25
2022-10-31T22:49:38.836Z,2.90
2022-10-31T22:52:41.964Z,3.17
2022-10-31T22:55:45.071Z,2.88
2022-10-31T22:58:49.358Z,3.30
2022-10-31T23:01:54.344Z,5.18
2022-10-31T23:04:58.991Z,3.08
2022-10-31T23:08:02.397Z,4.13
2022-10-31T23:11:14.844Z,3.72
2022-10-31T23:14:20.583Z,1.85
2022-10-31T23:17:23.956Z,1.63
2022-10-31T23:20:28.515Z,4.57
2022-10-31T23:23:35.130Z,2.20
2022-10-31T23:26:56.438Z,3.50
2022-10-31T23:30:00.227Z,4.78
2022-10-31T23:33:03.790Z,2.90
2022-10-31T23:36:09.551Z,2.75
2022-10-31T23:39:12.711Z,3.72
2022-10-31T23:42:16.596Z,2.72
2022-10-31T23:45:19.717Z,2.78
2022-10-31T23:48:23.013Z,2.38
2022-10-31T23:51:27.415Z,2.80
2022-10-31T23:54:31.031Z,1.75
2022-10-31T23:57:34.160Z,3.35
